Time;durP1;ratioP1;P1;durP2;ratioP2;P2;SDS_P1;SDS_P2;PMS_P1;PMS_P2;Temp;Humidity;BMP_temperature;BMP_pressure;BME280_temperature;BME280_humidity;BME280_pressure;Samples;Min_cycle;Max_cycle;Signal;HPM_P1;HPM_P2
2022/07/01 00:01:40;;;;;;;5.93;3.17;;;14.30;98.80;;;;;;4998574;28;21172;-72
2022/07/01 00:04:06;;;;;;;17.10;16.20;;;14.30;98.90;;;;;;4988494;28;20765;-72
2022/07/01 00:06:33;;;;;;;22.30;21.20;;;14.30;99.10;;;;;;4985106;28;20280;-72
2022/07/01 00:08:58;;;;;;;40.70;38.73;;;14.30;99.10;;;;;;4998595;28;20788;-72
2022/07/01 00:11:24;;;;;;;32.30;30.53;;;14.30;99.30;;;;;;4993967;28;20343;-72
2022/07/01 00:13:50;;;;;;;52.93;50.27;;;14.30;99.50;;;;;;5005639;28;20401;-72
2022/07/01 00:16:16;;;;;;;37.53;35.57;;;14.30;99.60;;;;;;5004569;28;20050;-72
2022/07/01 00:18:41;;;;;;;45.83;43.53;;;14.30;99.70;;;;;;5003890;28;20077;-72
2022/07/01 00:21:07;;;;;;;40.47;38.53;;;14.30;99.60;;;;;;4999704;28;20414;-72
2022/07/01 00:23:33;;;;;;;43.53;41.20;;;14.30;99.70;;;;;;4998391;28;20126;-72
2022/07/01 00:25:59;;;;;;;66.57;63.53;;;14.20;99.60;;;;;;5004351;28;20454;-72
2022/07/01 00:28:25;;;;;;;42.80;40.80;;;14.20;99.60;;;;;;4987931;28;20465;-72
2022/07/01 00:30:52;;;;;;;49.97;47.63;;;14.20;99.60;;;;;;5020956;28;20289;-72
2022/07/01 00:33:18;;;;;;;42.30;40.40;;;14.10;99.70;;;;;;4984871;28;20757;-72
2022/07/01 00:35:43;;;;;;;39.30;37.47;;;14.20;99.80;;;;;;5002447;28;20535;-72
2022/07/01 00:38:10;;;;;;;42.80;40.77;;;14.20;99.80;;;;;;5006534;28;20490;-72
2022/07/01 00:40:36;;;;;;;45.87;43.67;;;14.10;99.70;;;;;;5007950;28;20438;-72
2022/07/01 00:43:02;;;;;;;36.37;34.40;;;14.10;99.80;;;;;;4992274;28;20299;-72
2022/07/01 00:45:27;;;;;;;14.27;13.43;;;14.10;99.80;;;;;;5003802;28;20522;-72
2022/07/01 00:47:53;;;;;;;38.27;36.40;;;14.20;99.90;;;;;;4992546;28;20293;-72
2022/07/01 00:50:19;;;;;;;31.57;30.10;;;14.20;99.90;;;;;;4994297;28;20120;-72
2022/07/01 00:52:46;;;;;;;29.53;27.90;;;14.20;99.90;;;;;;5001611;28;20045;-72
2022/07/01 00:55:13;;;;;;;24.60;23.20;;;14.20;99.80;;;;;;4990907;28;20065;-72
2022/07/01 00:57:40;;;;;;;28.97;27.57;;;14.20;99.90;;;;;;5005510;28;20301;-72
2022/07/01 01:00:09;;;;;;;21.60;20.60;;;14.10;99.90;;;;;;4990829;28;20660;-72
2022/07/01 01:02:36;;;;;;;6.67;6.03;;;14.10;99.90;;;;;;5005789;28;20284;-72
2022/07/01 01:05:07;;;;;;;30.10;28.53;;;14.10;99.90;;;;;;4990736;28;20375;-72
2022/07/01 01:07:33;;;;;;;40.50;38.50;;;14.10;99.90;;;;;;4983889;28;20352;-72
2022/07/01 01:10:03;;;;;;;32.73;31.23;;;14.20;99.90;;;;;;4981316;28;20331;-72
2022/07/01 01:12:29;;;;;;;28.93;27.37;;;14.20;99.90;;;;;;5004251;28;20390;-72
2022/07/01 01:14:56;;;;;;;28.37;26.83;;;14.20;99.90;;;;;;5003605;28;20293;-72
2022/07/01 01:17:22;;;;;;;28.63;27.10;;;14.20;99.90;;;;;;5006313;28;20297;-72
2022/07/01 01:19:49;;;;;;;33.67;31.83;;;14.20;99.90;;;;;;5006193;28;20728;-72
2022/07/01 01:22:17;;;;;;;27.57;25.97;;;14.20;99.90;;;;;;4986633;28;20301;-72
2022/07/01 01:24:45;;;;;;;29.43;27.93;;;14.10;99.90;;;;;;5021267;28;20701;-72
2022/07/01 01:27:11;;;;;;;26.77;25.10;;;14.00;99.90;;;;;;4995018;28;20293;-72
2022/07/01 01:29:37;;;;;;;38.73;36.83;;;14.00;99.80;;;;;;5006799;28;20350;-72
2022/07/01 01:32:05;;;;;;;30.17;28.50;;;14.00;99.90;;;;;;4991757;28;20334;-72
2022/07/01 01:34:38;;;;;;;40.50;38.37;;;13.90;99.80;;;;;;5017006;28;20657;-72
2022/07/01 01:37:05;;;;;;;29.57;27.93;;;13.90;99.80;;;;;;5007746;28;20301;-72
2022/07/01 01:39:31;;;;;;;28.87;27.13;;;13.80;99.80;;;;;;5007143;28;20664;-72
2022/07/01 01:41:57;;;;;;;30.70;29.13;;;13.80;99.70;;;;;;5005142;28;20304;-72
2022/07/01 01:44:22;;;;;;;34.87;33.00;;;13.80;99.70;;;;;;5006821;28;20038;-72
2022/07/01 01:46:48;;;;;;;28.83;27.13;;;13.70;99.80;;;;;;5007015;28;20125;-72
2022/07/01 01:49:14;;;;;;;31.60;30.00;;;13.70;99.80;;;;;;5006206;28;20141;-72
2022/07/01 01:51:40;;;;;;;30.10;28.47;;;13.70;99.90;;;;;;4988639;28;20422;-72
2022/07/01 01:54:06;;;;;;;28.60;26.80;;;13.70;99.90;;;;;;5006633;28;20124;-72
2022/07/01 01:56:32;;;;;;;34.97;32.87;;;13.70;99.90;;;;;;4981833;28;20082;-72
2022/07/01 01:58:58;;;;;;;21.80;20.30;;;13.70;99.90;;;;;;5006426;28;20336;-72
2022/07/01 02:01:24;;;;;;;31.80;29.73;;;13.70;99.90;;;;;;5003803;28;20296;-72
2022/07/01 02:03:52;;;;;;;24.70;22.90;;;13.70;99.90;;;;;;5024478;28;20292;-72
2022/07/01 02:06:19;;;;;;;21.03;19.80;;;13.70;99.90;;;;;;5012291;28;20037;-72
2022/07/01 02:08:44;;;;;;;26.50;24.83;;;13.70;99.90;;;;;;4997610;28;20300;-72
2022/07/01 02:11:10;;;;;;;28.33;26.87;;;13.70;99.90;;;;;;4998232;28;20307;-72
2022/07/01 02:13:37;;;;;;;23.93;22.47;;;13.70;99.90;;;;;;5019358;28;20050;-72
2022/07/01 02:16:03;;;;;;;39.07;36.87;;;13.70;99.90;;;;;;4985183;28;20044;-72
2022/07/01 02:18:30;;;;;;;27.47;26.00;;;13.60;99.90;;;;;;5004698;28;20375;-72
2022/07/01 02:20:55;;;;;;;37.63;35.60;;;13.60;99.90;;;;;;4986589;28;20341;-72
2022/07/01 02:23:21;;;;;;;31.00;29.33;;;13.60;99.90;;;;;;5007038;28;20320;-72
2022/07/01 02:25:48;;;;;;;27.80;26.17;;;13.60;99.80;;;;;;4990366;28;20038;-72
2022/07/01 02:28:13;;;;;;;27.20;25.67;;;13.60;99.90;;;;;;5003786;28;20339;-72
2022/07/01 02:30:40;;;;;;;34.07;32.03;;;13.50;99.90;;;;;;4995073;28;20731;-72
2022/07/01 02:33:06;;;;;;;20.03;18.90;;;13.50;99.90;;;;;;5000563;28;20041;-72
2022/07/01 02:35:34;;;;;;;32.43;30.83;;;13.50;99.90;;;;;;5014035;28;20781;-72
2022/07/01 02:38:00;;;;;;;30.60;28.53;;;13.50;99.90;;;;;;5006246;28;20301;-72
2022/07/01 02:40:26;;;;;;;35.00;33.07;;;13.50;99.90;;;;;;5005137;28;20890;-72
2022/07/01 02:42:52;;;;;;;24.50;23.07;;;13.50;99.90;;;;;;4990587;28;20128;-72
2022/07/01 02:45:17;;;;;;;45.97;43.50;;;13.50;99.80;;;;;;4990768;28;20309;-72
2022/07/01 02:47:44;;;;;;;26.20;24.73;;;13.50;99.70;;;;;;4997683;28;20134;-72
2022/07/01 02:50:12;;;;;;;13.47;12.57;;;13.50;99.70;;;;;;5004136;28;20305;-72
2022/07/01 02:52:40;;;;;;;51.90;49.00;;;13.50;99.70;;;;;;4989293;28;20332;-72
2022/07/01 02:55:08;;;;;;;46.57;43.97;;;13.50;99.70;;;;;;5005564;28;20293;-72
2022/07/01 02:57:34;;;;;;;61.73;58.33;;;13.50;99.70;;;;;;5015330;28;20292;-72
2022/07/01 03:00:00;;;;;;;72.53;68.87;;;13.50;99.60;;;;;;5004046;28;20681;-72
2022/07/01 03:02:27;;;;;;;70.23;66.63;;;13.50;99.70;;;;;;4988873;28;20122;-72
2022/07/01 03:04:53;;;;;;;38.97;36.93;;;13.50;99.60;;;;;;5017029;28;20293;-72
2022/07/01 03:07:19;;;;;;;41.33;38.93;;;13.40;99.50;;;;;;5001469;28;20303;-72
2022/07/01 03:09:45;;;;;;;47.23;44.53;;;13.40;99.70;;;;;;5004250;28;20654;-72
2022/07/01 03:12:24;;;;;;;41.27;38.67;;;13.40;99.50;;;;;;4988946;28;20396;-71
2022/07/01 03:14:51;;;;;;;52.97;49.73;;;13.40;99.40;;;;;;4987667;28;20335;-72
2022/07/01 03:17:18;;;;;;;43.50;40.93;;;13.40;99.40;;;;;;5017428;28;20288;-72
2022/07/01 03:19:45;;;;;;;33.10;30.90;;;13.30;99.40;;;;;;4986574;28;20728;-72
2022/07/01 03:22:10;;;;;;;32.80;30.73;;;13.30;99.40;;;;;;4988603;28;20351;-71
2022/07/01 03:24:36;;;;;;;27.73;25.93;;;13.30;99.40;;;;;;5004861;28;20320;-71
2022/07/01 03:27:03;;;;;;;13.73;12.53;;;13.30;99.30;;;;;;4980953;28;20125;-71
2022/07/01 03:29:29;;;;;;;44.30;41.77;;;13.30;99.40;;;;;;4995806;28;20121;-71
2022/07/01 03:31:55;;;;;;;58.53;55.30;;;13.30;99.30;;;;;;4986407;28;20293;-71
2022/07/01 03:34:21;;;;;;;42.10;39.33;;;13.30;99.30;;;;;;4983815;28;20294;-71
2022/07/01 03:36:47;;;;;;;23.77;22.07;;;13.30;99.20;;;;;;5004022;28;20693;-72
2022/07/01 03:39:12;;;;;;;23.77;21.97;;;13.40;99.40;;;;;;5004798;28;20052;-72
2022/07/01 03:41:38;;;;;;;24.13;22.60;;;13.40;99.40;;;;;;4984693;28;20458;-72
2022/07/01 03:44:05;;;;;;;34.10;32.33;;;13.40;99.60;;;;;;5005543;28;20045;-72
2022/07/01 03:46:32;;;;;;;32.33;30.17;;;13.40;99.50;;;;;;5003545;28;20069;-72
2022/07/01 03:48:58;;;;;;;17.73;16.70;;;13.40;99.30;;;;;;4983152;28;20288;-72
2022/07/01 03:51:24;;;;;;;14.20;9.70;;;13.40;99.20;;;;;;4972378;28;20359;-72
2022/07/01 03:56:34;;;;;;;57.42;54.35;;;13.40;99.20;;;;;;5004230;28;20379;-72
2022/07/01 03:59:00;;;;;;;61.50;58.07;;;13.40;99.20;;;;;;4970685;28;20439;-72
2022/07/01 04:01:26;;;;;;;28.07;26.17;;;13.40;99.30;;;;;;4969386;28;20038;-72
2022/07/01 04:03:51;;;;;;;31.83;29.57;;;13.40;99.30;;;;;;5005262;28;20158;-72
2022/07/01 04:06:18;;;;;;;25.33;23.57;;;13.50;99.40;;;;;;5005851;28;20042;-72
2022/07/01 04:08:44;;;;;;;23.07;21.60;;;13.50;99.30;;;;;;4986028;28;20035;-72
2022/07/01 04:11:10;;;;;;;27.33;25.30;;;13.50;99.30;;;;;;5004222;28;20620;-72
2022/07/01 04:13:39;;;;;;;27.07;25.37;;;13.50;99.30;;;;;;5012933;28;20383;-72
2022/07/01 04:16:06;;;;;;;15.13;14.13;;;13.50;99.20;;;;;;4987910;28;20129;-72
2022/07/01 04:18:32;;;;;;;11.30;3.83;;;13.50;99.10;;;;;;5004158;28;20288;-72
2022/07/01 04:23:43;;;;;;;5.18;3.83;;;13.50;98.80;;;;;;5016814;28;20408;-72
2022/07/01 04:26:09;;;;;;;6.70;3.00;;;13.50;98.50;;;;;;5003709;28;20493;-72
2022/07/01 04:28:34;;;;;;;7.80;2.87;;;13.50;98.30;;;;;;5003911;28;20371;-72
2022/07/01 04:31:00;;;;;;;6.03;3.53;;;13.50;98.10;;;;;;4970950;28;20030;-72
2022/07/01 04:33:26;;;;;;;4.80;3.50;;;13.50;98.20;;;;;;5019569;28;20402;-72
2022/07/01 04:35:52;;;;;;;7.07;5.63;;;13.50;98.30;;;;;;5019603;28;20034;-72
2022/07/01 04:38:18;;;;;;;8.43;6.47;;;13.50;98.40;;;;;;5004481;28;20304;-72
2022/07/01 04:41:58;;;;;;;8.33;4.87;;;13.50;98.30;;;;;;4987990;28;20116;-71
2022/07/01 04:43:29;;;;;;;9.73;7.30;;;13.50;98.20;;;;;;5006373;28;20399;-71
2022/07/01 04:45:55;;;;;;;27.70;25.90;;;13.60;98.30;;;;;;4986959;28;20285;-71
2022/07/01 04:48:21;;;;;;;12.93;9.23;;;13.60;98.40;;;;;;4971021;28;20481;-71
2022/07/01 04:50:47;;;;;;;11.90;10.53;;;13.60;98.30;;;;;;5003963;28;20104;-71
2022/07/01 04:53:13;;;;;;;11.33;7.23;;;13.60;98.20;;;;;;5004536;28;20296;-71
2022/07/01 04:55:39;;;;;;;13.30;8.43;;;13.60;98.00;;;;;;5020235;28;20305;-71
2022/07/01 04:58:05;;;;;;;19.27;17.37;;;13.60;98.00;;;;;;5004515;28;20285;-71
2022/07/01 05:00:31;;;;;;;35.90;33.37;;;13.70;97.80;;;;;;4987178;28;20076;-71
2022/07/01 05:02:56;;;;;;;11.73;10.13;;;13.70;97.90;;;;;;5004633;28;20045;-71
2022/07/01 05:05:22;;;;;;;8.23;7.40;;;13.70;97.90;;;;;;5002372;28;20038;-71
2022/07/01 05:07:48;;;;;;;16.47;11.77;;;13.70;97.90;;;;;;5003090;28;20057;-72
2022/07/01 05:10:14;;;;;;;12.23;8.93;;;13.70;98.10;;;;;;5016419;28;20115;-71
2022/07/01 05:12:40;;;;;;;31.30;29.00;;;13.80;98.10;;;;;;5003469;28;20418;-71
2022/07/01 05:15:06;;;;;;;15.70;8.17;;;13.90;98.10;;;;;;4998367;28;20070;-71
2022/07/01 05:23:21;;;;;;;28.07;25.87;;;14.10;98.40;;;;;;4934316;28;20479;-71
2022/07/01 05:25:47;;;;;;;14.07;12.47;;;14.20;98.50;;;;;;4928799;29;20686;-71
2022/07/01 05:28:13;;;;;;;18.20;11.47;;;14.30;98.70;;;;;;4961591;28;20085;-71
2022/07/01 05:30:39;;;;;;;18.03;13.13;;;14.30;98.70;;;;;;4989564;28;20489;-71
2022/07/01 05:33:05;;;;;;;17.37;15.57;;;14.40;98.70;;;;;;4971057;28;20038;-71
2022/07/01 05:35:31;;;;;;;44.03;40.23;;;14.40;98.70;;;;;;4986174;28;20054;-71
2022/07/01 05:37:56;;;;;;;24.43;16.87;;;14.50;98.80;;;;;;4974345;28;20688;-71
2022/07/01 05:40:22;;;;;;;23.13;20.83;;;14.50;98.70;;;;;;5003896;28;20140;-71
2022/07/01 05:42:48;;;;;;;22.13;16.17;;;14.60;98.80;;;;;;4983701;28;20129;-71
2022/07/01 05:45:14;;;;;;;16.77;14.93;;;14.60;98.70;;;;;;5004206;28;20824;-71
2022/07/01 05:47:40;;;;;;;16.90;13.97;;;14.60;98.60;;;;;;4990052;28;20410;-71
2022/07/01 05:50:06;;;;;;;24.47;20.93;;;14.70;98.40;;;;;;5006311;28;20038;-71
2022/07/01 05:52:32;;;;;;;17.90;16.13;;;14.70;98.40;;;;;;5017241;28;20292;-71
2022/07/01 05:54:58;;;;;;;25.23;23.13;;;14.70;97.70;;;;;;5002818;28;20339;-71
2022/07/01 05:57:24;;;;;;;23.47;21.07;;;14.60;97.00;;;;;;4974760;28;20482;-71
2022/07/01 05:59:49;;;;;;;19.53;15.97;;;14.60;96.20;;;;;;5007491;28;20046;-71
2022/07/01 06:02:15;;;;;;;23.57;21.47;;;14.60;96.20;;;;;;4991573;28;20050;-71
2022/07/01 06:04:43;;;;;;;16.87;13.50;;;14.60;96.00;;;;;;5000725;28;20110;-71
2022/07/01 06:07:10;;;;;;;15.73;14.20;;;14.60;96.00;;;;;;5007752;28;20073;-71
2022/07/01 06:09:36;;;;;;;15.77;13.77;;;14.60;96.20;;;;;;5001738;28;20388;-71
2022/07/01 06:12:04;;;;;;;16.47;11.83;;;14.60;96.40;;;;;;4991586;28;20280;-71
2022/07/01 06:14:29;;;;;;;15.90;13.53;;;14.60;95.40;;;;;;5002566;28;20647;-71
2022/07/01 06:16:55;;;;;;;12.27;9.30;;;14.60;95.80;;;;;;4989541;28;20301;-71
2022/07/01 06:19:21;;;;;;;14.13;11.13;;;14.60;96.10;;;;;;4989747;28;20041;-71
2022/07/01 06:21:47;;;;;;;17.07;12.87;;;14.60;96.00;;;;;;5007600;28;20417;-72
2022/07/01 06:24:12;;;;;;;14.23;9.47;;;14.60;95.80;;;;;;5003384;28;20042;-71
2022/07/01 06:26:38;;;;;;;16.87;8.97;;;14.60;95.40;;;;;;5007131;28;20289;-71
2022/07/01 06:29:04;;;;;;;13.47;12.27;;;14.60;95.30;;;;;;5006208;28;20033;-71
2022/07/01 06:31:29;;;;;;;17.13;8.63;;;14.60;94.00;;;;;;5006608;28;20045;-71
2022/07/01 06:33:55;;;;;;;12.43;9.47;;;14.60;94.30;;;;;;5002779;28;20061;-71
2022/07/01 06:36:21;;;;;;;24.03;21.53;;;14.60;94.40;;;;;;5006552;28;20045;-71
2022/07/01 06:38:50;;;;;;;12.67;10.33;;;14.60;94.60;;;;;;5018439;28;20116;-71
2022/07/01 06:41:27;;;;;;;13.57;6.47;;;14.60;94.20;;;;;;4990793;28;20479;-71
2022/07/01 06:43:54;;;;;;;11.57;9.37;;;14.60;93.20;;;;;;5002468;28;20315;-71
2022/07/01 06:46:21;;;;;;;12.70;6.63;;;14.70;93.40;;;;;;4990423;28;20395;-71
2022/07/01 06:48:46;;;;;;;12.57;7.60;;;14.70;93.90;;;;;;5006275;28;20335;-71
2022/07/01 06:51:12;;;;;;;18.37;13.37;;;14.80;94.50;;;;;;5001122;28;20320;-71
2022/07/01 06:53:38;;;;;;;13.17;8.80;;;14.90;95.10;;;;;;5000896;28;20049;-71
2022/07/01 06:56:04;;;;;;;13.37;9.30;;;15.00;94.50;;;;;;5001238;28;20165;-71
2022/07/01 06:58:30;;;;;;;14.73;9.07;;;15.10;94.80;;;;;;4988383;28;20041;-71
2022/07/01 07:00:56;;;;;;;16.07;8.93;;;15.10;94.90;;;;;;4997893;28;20713;-71
2022/07/01 07:03:21;;;;;;;18.00;13.57;;;15.20;95.40;;;;;;5006448;28;20070;-71
2022/07/01 07:05:47;;;;;;;22.63;20.50;;;15.30;95.30;;;;;;4988282;28;20033;-71
2022/07/01 07:08:12;;;;;;;16.27;14.90;;;15.50;95.40;;;;;;5006815;28;20099;-71
2022/07/01 07:10:38;;;;;;;16.40;10.67;;;15.60;95.00;;;;;;5006543;28;20042;-71
2022/07/01 07:13:04;;;;;;;18.17;16.40;;;15.70;94.90;;;;;;5004432;28;20065;-71
2022/07/01 07:15:30;;;;;;;11.03;8.10;;;15.80;94.10;;;;;;5005776;28;20566;-71
2022/07/01 07:17:57;;;;;;;18.63;16.90;;;15.80;93.30;;;;;;4970368;28;20038;-71
2022/07/01 07:20:24;;;;;;;27.73;25.43;;;15.90;93.00;;;;;;5005251;28;20050;-71
2022/07/01 07:22:49;;;;;;;20.53;18.60;;;15.90;92.30;;;;;;4990410;28;20384;-71
2022/07/01 07:25:15;;;;;;;20.43;18.33;;;16.00;92.70;;;;;;5005547;28;20367;-71
2022/07/01 07:27:41;;;;;;;19.80;18.20;;;16.20;92.10;;;;;;5005366;28;20038;-71
2022/07/01 07:30:07;;;;;;;20.70;18.80;;;16.30;92.40;;;;;;4983516;28;20038;-71
2022/07/01 07:32:33;;;;;;;11.43;10.30;;;16.40;91.80;;;;;;4985015;28;20266;-71
2022/07/01 07:34:58;;;;;;;21.73;20.00;;;16.50;91.40;;;;;;4998283;28;20789;-71
2022/07/01 07:37:24;;;;;;;37.30;34.50;;;16.60;89.10;;;;;;5020957;28;20490;-71
2022/07/01 07:39:50;;;;;;;113.13;105.73;;;16.60;89.30;;;;;;4972197;28;20042;-71
2022/07/01 07:42:15;;;;;;;78.83;74.43;;;16.80;89.60;;;;;;4986595;28;20050;-71
2022/07/01 07:44:41;;;;;;;132.07;124.80;;;17.00;89.90;;;;;;4988733;28;20077;-71
2022/07/01 07:47:07;;;;;;;9.87;8.90;;;17.10;88.20;;;;;;5002296;28;20041;-71
2022/07/01 07:49:32;;;;;;;171.10;161.97;;;17.20;87.40;;;;;;4988260;28;20055;-71
2022/07/01 07:51:58;;;;;;;134.37;126.53;;;17.40;89.00;;;;;;5004154;28;20072;-71
2022/07/01 07:54:24;;;;;;;106.60;100.17;;;17.60;88.00;;;;;;5004269;28;20049;-71
2022/07/01 07:56:50;;;;;;;128.50;121.07;;;17.80;87.30;;;;;;5000009;28;20104;-71
2022/07/01 07:59:16;;;;;;;135.57;127.80;;;18.00;87.50;;;;;;5001120;28;20310;-71
2022/07/01 08:01:41;;;;;;;145.07;137.17;;;18.30;86.10;;;;;;5002928;28;20041;-71
2022/07/01 08:04:07;;;;;;;76.63;71.60;;;18.30;82.90;;;;;;4985823;28;20053;-71
2022/07/01 08:06:33;;;;;;;122.33;115.00;;;18.30;83.90;;;;;;5003525;28;20034;-69
2022/07/01 08:08:59;;;;;;;137.90;129.83;;;18.20;83.20;;;;;;4992336;28;20076;-70
2022/07/01 08:11:24;;;;;;;151.00;142.03;;;18.20;83.10;;;;;;4996093;28;20050;-70
2022/07/01 08:13:50;;;;;;;151.87;142.90;;;18.20;84.10;;;;;;5001787;28;20046;-69
2022/07/01 08:16:16;;;;;;;151.13;142.50;;;18.10;81.20;;;;;;4984472;28;20061;-70
2022/07/01 08:18:41;;;;;;;123.80;117.03;;;18.10;82.10;;;;;;4988606;28;20120;-70
2022/07/01 08:21:07;;;;;;;17.10;16.07;;;18.00;82.60;;;;;;4988492;28;20045;-69
2022/07/01 08:23:33;;;;;;;79.20;74.97;;;17.90;80.50;;;;;;4989557;28;20042;-69
2022/07/01 08:25:58;;;;;;;77.50;73.47;;;17.90;81.80;;;;;;5016757;28;20184;-69
2022/07/01 08:28:24;;;;;;;92.70;87.63;;;17.80;78.30;;;;;;4970056;28;20125;-70
2022/07/01 08:30:49;;;;;;;82.23;77.33;;;17.80;81.00;;;;;;4987485;28;20057;-69
2022/07/01 08:33:15;;;;;;;75.87;71.83;;;17.90;81.80;;;;;;4972642;28;20057;-69
2022/07/01 08:35:41;;;;;;;72.73;68.93;;;17.90;79.90;;;;;;4966489;28;20278;-69
2022/07/01 08:38:07;;;;;;;9.43;8.63;;;17.90;80.70;;;;;;4965806;28;20069;-70
2022/07/01 08:40:33;;;;;;;162.87;153.00;;;17.90;79.00;;;;;;4987544;28;20050;-69
2022/07/01 08:43:01;;;;;;;138.97;130.27;;;17.90;79.10;;;;;;5005191;28;20052;-69
2022/07/01 08:45:29;;;;;;;28.57;26.47;;;18.10;79.90;;;;;;5004270;28;20319;-69
2022/07/01 08:47:57;;;;;;;24.80;23.30;;;18.20;78.90;;;;;;5004879;28;20289;-70
2022/07/01 08:50:25;;;;;;;44.93;42.13;;;18.40;78.10;;;;;;5005014;28;20288;-70
2022/07/01 08:52:52;;;;;;;100.77;94.50;;;18.50;77.90;;;;;;4988282;28;20307;-69
2022/07/01 08:55:19;;;;;;;93.93;88.83;;;18.50;75.40;;;;;;4981531;28;20293;-70
2022/07/01 08:57:44;;;;;;;51.07;48.17;;;18.60;74.70;;;;;;4998987;28;20399;-69
2022/07/01 09:00:11;;;;;;;75.57;71.07;;;18.70;76.10;;;;;;4991697;28;20566;-69
2022/07/01 09:03:09;;;;;;;50.07;47.03;;;19.00;76.50;;;;;;5008282;28;20065;-69
2022/07/01 09:05:36;;;;;;;17.97;16.47;;;19.10;71.70;;;;;;4969279;28;20293;-69
2022/07/01 09:08:06;;;;;;;33.97;31.90;;;18.90;72.10;;;;;;5005036;28;20313;-69
2022/07/01 09:10:34;;;;;;;22.13;20.77;;;18.90;74.00;;;;;;4999538;28;20088;-69
2022/07/01 09:13:09;;;;;;;26.10;24.47;;;18.90;74.90;;;;;;5016076;28;20730;-69
2022/07/01 09:15:38;;;;;;;22.45;21.10;;;19.00;74.30;;;;;;4979637;28;20039;-69
2022/07/01 09:18:06;;;;;;;17.50;16.30;;;18.90;74.20;;;;;;5002722;28;20038;-69
2022/07/01 09:20:37;;;;;;;27.57;25.77;;;18.80;73.40;;;;;;4986006;28;20714;-69
2022/07/01 09:23:10;;;;;;;119.00;111.87;;;18.60;71.90;;;;;;5000631;28;20277;-69
2022/07/01 09:26:02;;;;;;;101.20;95.00;;;18.40;73.20;;;;;;4996622;28;20280;-69
2022/07/01 09:28:28;;;;;;;15.30;14.20;;;18.30;74.40;;;;;;5016054;28;20056;-69
2022/07/01 09:30:57;;;;;;;12.57;11.50;;;18.20;73.20;;;;;;5008352;28;20293;-70
2022/07/01 09:33:25;;;;;;;54.83;51.50;;;18.10;73.10;;;;;;4991838;28;20050;-69
2022/07/01 09:35:52;;;;;;;32.20;30.47;;;18.10;72.90;;;;;;5007057;28;20319;-69
2022/07/01 09:38:20;;;;;;;114.37;108.07;;;17.90;74.40;;;;;;5024117;28;20324;-70
2022/07/01 09:40:56;;;;;;;114.83;108.60;;;17.40;75.80;;;;;;5007265;28;20388;-69
2022/07/01 09:43:29;;;;;;;80.27;76.03;;;17.00;77.30;;;;;;4991397;28;20366;-69
2022/07/01 09:46:15;;;;;;;75.03;70.80;;;16.60;79.00;;;;;;5007649;28;20303;-69
2022/07/01 09:48:42;;;;;;;40.17;37.80;;;16.40;80.50;;;;;;5006835;28;20281;-69
2022/07/01 09:51:09;;;;;;;51.47;48.80;;;16.30;82.20;;;;;;5007830;28;20292;-69
2022/07/01 09:53:35;;;;;;;41.77;39.57;;;16.40;82.80;;;;;;5022368;28;20303;-69
2022/07/01 09:56:01;;;;;;;45.70;43.10;;;16.40;83.10;;;;;;5007204;28;20629;-69
2022/07/01 09:58:27;;;;;;;26.87;25.50;;;16.50;83.70;;;;;;5018540;28;20054;-69
2022/07/01 10:00:53;;;;;;;15.23;14.00;;;16.70;83.80;;;;;;5001945;28;20817;-69
2022/07/01 10:03:21;;;;;;;34.70;33.00;;;17.10;84.50;;;;;;5007620;28;20045;-69
2022/07/01 10:06:37;;;;;;;10.63;9.77;;;17.50;84.50;;;;;;4990461;28;20360;-70
2022/07/01 10:09:24;;;;;;;24.75;23.25;;;17.90;83.20;;;;;;4949006;28;20282;-70
2022/07/01 10:12:05;;;;;;;64.87;61.57;;;18.20;81.90;;;;;;5005667;28;20045;-70
2022/07/01 10:14:32;;;;;;;13.27;11.77;;;18.50;81.60;;;;;;4987558;28;20284;-70
2022/07/01 10:16:58;;;;;;;27.27;26.03;;;18.90;79.30;;;;;;5006197;28;20364;-70
2022/07/01 10:19:25;;;;;;;14.17;13.17;;;19.10;79.10;;;;;;5006575;28;20312;-70
2022/07/01 10:21:56;;;;;;;25.50;23.70;;;19.20;79.50;;;;;;4991562;28;20280;-70
2022/07/01 10:24:23;;;;;;;48.03;45.63;;;19.30;78.90;;;;;;5005913;28;20295;-70
2022/07/01 10:26:49;;;;;;;32.63;31.03;;;19.20;79.00;;;;;;5007227;28;20350;-70
2022/07/01 10:29:47;;;;;;;149.53;140.17;;;19.10;79.10;;;;;;4990284;28;20321;-70
2022/07/01 10:32:22;;;;;;;153.10;144.20;;;19.00;78.70;;;;;;4984010;28;20084;-70
2022/07/01 10:34:48;;;;;;;165.93;155.70;;;18.90;77.50;;;;;;4989263;28;20409;-70
2022/07/01 10:37:17;;;;;;;184.10;172.20;;;18.70;78.10;;;;;;5005872;28;20413;-70
2022/07/01 10:39:57;;;;;;;179.07;168.23;;;18.70;78.60;;;;;;4989189;28;20120;-70
2022/07/01 10:42:53;;;;;;;164.23;153.63;;;18.70;77.80;;;;;;4992295;28;20360;-70
2022/07/01 10:45:19;;;;;;;166.90;156.93;;;19.00;78.70;;;;;;5005736;28;20037;-70
2022/07/01 10:47:44;;;;;;;189.30;177.90;;;19.20;75.20;;;;;;4990219;28;20663;-70
2022/07/01 10:50:16;;;;;;;171.30;160.60;;;19.00;72.90;;;;;;5005595;28;20045;-70
2022/07/01 10:53:02;;;;;;;164.80;154.57;;;18.80;71.70;;;;;;5006250;28;20088;-70
2022/07/01 10:55:38;;;;;;;12.60;11.73;;;18.50;74.00;;;;;;4984063;28;20052;-70
2022/07/01 10:58:04;;;;;;;19.87;18.70;;;18.40;74.10;;;;;;5006729;28;20797;-70
2022/07/01 11:00:32;;;;;;;42.63;40.23;;;18.30;69.80;;;;;;4989580;28;20050;-70
2022/07/01 11:03:09;;;;;;;20.50;19.40;;;18.40;72.20;;;;;;5005644;28;20757;-71
2022/07/01 11:05:36;;;;;;;10.07;9.37;;;18.70;70.40;;;;;;5020328;28;20293;-70
2022/07/01 11:08:04;;;;;;;13.63;12.67;;;18.90;68.90;;;;;;4998653;28;20292;-70
2022/07/01 11:10:29;;;;;;;8.80;8.20;;;19.20;68.50;;;;;;4989291;28;20297;-70
2022/07/01 11:12:56;;;;;;;9.33;8.63;;;19.50;69.20;;;;;;5006034;28;20080;-70
2022/07/01 11:15:22;;;;;;;25.67;24.23;;;19.70;68.10;;;;;;5000489;28;20087;-70
2022/07/01 11:17:49;;;;;;;26.33;24.83;;;19.60;65.60;;;;;;4974945;28;20292;-70
2022/07/01 11:20:16;;;;;;;9.93;9.30;;;19.70;66.60;;;;;;4982611;28;20049;-70
2022/07/01 11:22:42;;;;;;;15.43;14.47;;;19.70;65.60;;;;;;5005170;28;20288;-70
2022/07/01 11:25:13;;;;;;;11.07;10.10;;;19.50;65.50;;;;;;5020758;28;20045;-70
2022/07/01 11:27:40;;;;;;;13.77;12.80;;;19.30;65.10;;;;;;5004254;28;20095;-70
2022/07/01 11:30:14;;;;;;;10.87;10.00;;;19.20;66.60;;;;;;4984933;28;20336;-70
2022/07/01 11:32:43;;;;;;;7.40;6.90;;;19.60;66.20;;;;;;5005332;28;20514;-70
2022/07/01 11:41:09;;;;;;;25.00;23.77;;;19.80;62.90;;;;;;4999373;28;20086;-69
2022/07/01 11:43:37;;;;;;;8.63;8.00;;;19.80;63.20;;;;;;5019185;28;20124;-70
2022/07/01 11:46:06;;;;;;;9.03;8.53;;;19.70;63.20;;;;;;4986896;28;20045;-70
2022/07/01 11:48:42;;;;;;;3.67;2.27;;;19.60;62.80;;;;;;5004332;28;20120;-69
2022/07/01 11:51:16;;;;;;;79.90;75.80;;;19.80;65.60;;;;;;5005157;28;20041;-69
2022/07/01 11:53:48;;;;;;;32.03;30.35;;;20.10;65.20;;;;;;4984562;28;20374;-70
2022/07/01 11:56:15;;;;;;;21.67;20.33;;;20.40;63.60;;;;;;4999862;28;20096;-70
2022/07/01 11:58:49;;;;;;;26.00;24.40;;;20.50;60.90;;;;;;5003971;28;20050;-69
2022/07/01 12:01:24;;;;;;;32.80;31.20;;;20.20;61.50;;;;;;5005427;28;20078;-70
2022/07/01 12:03:50;;;;;;;21.60;20.38;;;20.00;61.30;;;;;;5004251;28;20037;-70
2022/07/01 12:06:18;;;;;;;16.67;15.77;;;20.00;58.70;;;;;;5005147;28;20092;-70
2022/07/01 12:08:46;;;;;;;25.53;24.07;;;20.40;61.60;;;;;;4998788;28;20129;-70
2022/07/01 12:11:12;;;;;;;14.10;13.33;;;20.50;60.40;;;;;;5005322;28;20050;-70
2022/07/01 12:13:38;;;;;;;17.20;16.13;;;20.50;60.60;;;;;;5005022;28;20045;-70
2022/07/01 12:16:08;;;;;;;12.00;11.27;;;20.60;58.70;;;;;;4984250;28;20027;-70
2022/07/01 12:18:34;;;;;;;12.90;12.23;;;20.50;57.80;;;;;;4987538;28;20074;-69
2022/07/01 12:21:00;;;;;;;7.73;7.03;;;20.40;59.10;;;;;;4989199;28;20108;-69
2022/07/01 12:23:26;;;;;;;11.60;11.00;;;20.40;59.80;;;;;;5001950;28;20054;-69
2022/07/01 12:25:54;;;;;;;10.50;9.83;;;20.30;59.70;;;;;;5021088;28;20107;-69
2022/07/01 12:28:33;;;;;;;9.73;9.13;;;20.40;59.40;;;;;;4988953;28;20052;-69
2022/07/01 12:31:08;;;;;;;14.27;13.37;;;20.80;59.70;;;;;;5004958;28;20125;-69
2022/07/01 12:33:36;;;;;;;12.95;11.95;;;21.20;57.00;;;;;;4994727;28;20080;-70
2022/07/01 12:36:03;;;;;;;16.87;15.80;;;21.30;56.90;;;;;;4991262;28;20505;-70
2022/07/01 12:38:29;;;;;;;13.17;12.37;;;21.10;55.60;;;;;;4987771;28;20745;-69
2022/07/01 12:40:54;;;;;;;12.63;11.67;;;20.60;57.90;;;;;;5008452;28;20265;-69
2022/07/01 12:43:31;;;;;;;14.33;13.43;;;20.20;60.80;;;;;;5009322;28;20049;-70
2022/07/01 12:46:00;;;;;;;7.73;7.03;;;19.60;64.60;;;;;;5025177;28;20103;-69
2022/07/01 12:48:27;;;;;;;16.90;15.90;;;18.70;68.70;;;;;;5008202;28;20038;-69